Time;durP1;ratioP1;P1;durP2;ratioP2;P2;SDS_P1;SDS_P2;PMS_P1;PMS_P2;Temp;Humidity;BMP_temperature;BMP_pressure;BME280_temperature;BME280_humidity;BME280_pressure;Samples;Min_cycle;Max_cycle;Signal;HPM_P1;HPM_P2
2022/06/05 00:01:22;;;;;;;;;;;20.10;56.30;;;;;;5123709;28;19993;-46
2022/06/05 00:04:01;;;;;;;;;;;19.80;55.40;;;;;;5127137;28;20327;-44
2022/06/05 00:06:48;;;;;;;;;;;19.80;54.90;;;;;;5104574;28;19935;-49
2022/06/05 00:09:32;;;;;;;;;;;20.20;60.60;;;;;;5071310;28;20375;-46
2022/06/05 00:11:58;;;;;;;;;;;21.00;63.30;;;;;;5128814;28;19923;-47
2022/06/05 00:14:24;;;;;;;;;;;21.70;62.30;;;;;;5123281;28;19923;-47
2022/06/05 00:16:49;;;;;;;;;;;20.90;59.90;;;;;;5123470;28;20342;-47
2022/06/05 00:19:15;;;;;;;;;;;20.40;57.90;;;;;;5128683;28;19976;-45
2022/06/05 00:21:41;;;;;;;;;;;20.20;56.50;;;;;;5121709;28;19923;-46
2022/06/05 00:24:07;;;;;;;;;;;20.00;55.50;;;;;;5123843;28;19958;-52
2022/06/05 00:26:45;;;;;;;;;;;19.70;55.40;;;;;;5126239;28;19935;-45
2022/06/05 00:29:20;;;;;;;;;;;20.10;59.10;;;;;;5104523;28;19939;-47
2022/06/05 00:31:49;;;;;;;;;;;20.80;63.40;;;;;;5128036;28;20370;-52
2022/06/05 00:34:15;;;;;;;;;;;21.60;63.40;;;;;;5107310;28;19923;-45
2022/06/05 00:37:04;;;;;;;;;;;21.20;60.70;;;;;;5122868;28;20382;-45
2022/06/05 00:39:43;;;;;;;;;;;20.60;58.50;;;;;;5113742;28;19934;-51
2022/06/05 00:42:10;;;;;;;;;;;20.10;56.60;;;;;;5108093;28;19933;-44
2022/06/05 00:44:40;;;;;;;;;;;19.80;56.10;;;;;;5122383;28;20395;-49
2022/06/05 00:47:06;;;;;;;;;;;19.60;55.50;;;;;;5127800;27;19924;-46
2022/06/05 00:49:33;;;;;;;;;;;20.00;58.30;;;;;;5102878;28;19923;-47
2022/06/05 00:52:00;;;;;;;;;;;20.80;63.00;;;;;;5118764;28;19923;-44
2022/06/05 00:54:25;;;;;;;;;;;21.40;63.40;;;;;;5128310;28;19930;-46
2022/06/05 00:56:51;;;;;;;;;;;21.50;61.30;;;;;;5122628;28;20375;-47
2022/06/05 00:59:18;;;;;;;;;;;20.60;59.20;;;;;;5120410;28;20315;-45
2022/06/05 01:01:44;;;;;;;;;;;20.30;57.40;;;;;;5126967;28;19923;-45
2022/06/05 01:04:10;;;;;;;;;;;20.20;56.00;;;;;;5122253;28;19931;-45
2022/06/05 01:06:35;;;;;;;;;;;19.90;55.40;;;;;;5127483;28;19980;-52
2022/06/05 01:09:03;;;;;;;;;;;19.80;54.60;;;;;;5123238;28;19928;-46
2022/06/05 01:11:47;;;;;;;;;;;19.90;57.40;;;;;;5122448;28;19924;-45
2022/06/05 01:14:16;;;;;;;;;;;20.70;62.40;;;;;;5127602;28;19929;-45
2022/06/05 01:16:45;;;;;;;;;;;21.50;63.00;;;;;;5102408;28;19932;-46
2022/06/05 01:19:26;;;;;;;;;;;21.30;60.40;;;;;;5120812;28;20006;-43
2022/06/05 01:21:57;;;;;;;;;;;20.70;58.40;;;;;;5127610;28;20014;-46
2022/06/05 01:24:38;;;;;;;;;;;20.50;56.30;;;;;;5103995;28;19954;-44
2022/06/05 01:27:05;;;;;;;;;;;20.00;55.70;;;;;;5122303;28;19949;-46
2022/06/05 01:29:36;;;;;;;;;;;19.80;54.70;;;;;;5109358;28;20275;-49
2022/06/05 01:32:09;;;;;;;;;;;20.20;58.50;;;;;;5104024;28;19945;-47
2022/06/05 01:34:39;;;;;;;;;;;20.90;62.40;;;;;;5103353;28;19976;-50
2022/06/05 01:37:07;;;;;;;;;;;21.60;62.70;;;;;;5106915;28;19930;-44
2022/06/05 01:39:45;;;;;;;;;;;21.10;60.10;;;;;;5121623;28;19931;-45
2022/06/05 01:42:13;;;;;;;;;;;20.60;58.00;;;;;;5121843;28;19927;-46
2022/06/05 01:44:40;;;;;;;;;;;20.20;56.60;;;;;;5109315;28;19930;-46
2022/06/05 01:47:07;;;;;;;;;;;20.00;55.60;;;;;;5103768;28;20052;-44
2022/06/05 01:49:37;;;;;;;;;;;20.00;54.60;;;;;;5103564;28;19923;-45
2022/06/05 01:52:13;;;;;;;;;;;19.70;54.70;;;;;;5127004;28;20396;-46
2022/06/05 01:54:42;;;;;;;;;;;20.30;60.10;;;;;;5101034;28;20048;-50
2022/06/05 01:57:08;;;;;;;;;;;21.10;62.50;;;;;;5102580;28;19924;-46
2022/06/05 01:59:41;;;;;;;;;;;21.80;62.30;;;;;;5107772;28;20430;-44
2022/06/05 02:02:11;;;;;;;;;;;21.00;59.40;;;;;;5121570;28;19927;-45
2022/06/05 02:04:38;;;;;;;;;;;20.30;57.60;;;;;;5109149;28;20013;-46
2022/06/05 02:07:04;;;;;;;;;;;19.80;56.80;;;;;;5103401;28;19924;-46
2022/06/05 02:09:35;;;;;;;;;;;19.80;55.50;;;;;;5103206;28;19927;-46
2022/06/05 02:12:01;;;;;;;;;;;19.80;54.70;;;;;;5125341;28;19934;-48
2022/06/05 02:14:27;;;;;;;;;;;20.30;60.70;;;;;;5101623;28;19927;-46
2022/06/05 02:16:53;;;;;;;;;;;21.00;62.70;;;;;;5120988;28;20827;-45
2022/06/05 02:19:19;;;;;;;;;;;21.80;62.10;;;;;;5126513;28;19924;-46
2022/06/05 02:21:44;;;;;;;;;;;21.30;59.80;;;;;;5121129;28;19967;-44
2022/06/05 02:24:11;;;;;;;;;;;20.50;58.30;;;;;;5122281;28;19954;-52
2022/06/05 02:26:37;;;;;;;;;;;20.20;56.90;;;;;;5126424;28;19979;-47
2022/06/05 02:29:19;;;;;;;;;;;19.90;55.60;;;;;;5120793;28;19927;-44
2022/06/05 02:31:48;;;;;;;;;;;19.80;54.60;;;;;;5123229;28;19957;-51
2022/06/05 02:34:16;;;;;;;;;;;20.00;58.00;;;;;;5122421;28;20377;-48
2022/06/05 02:36:46;;;;;;;;;;;20.70;62.60;;;;;;5120923;28;19923;-45
2022/06/05 02:39:27;;;;;;;;;;;21.40;62.70;;;;;;5126742;28;19940;-46
2022/06/05 02:42:02;;;;;;;;;;;21.40;60.80;;;;;;5102809;28;20386;-46
2022/06/05 02:44:34;;;;;;;;;;;20.60;58.20;;;;;;5101329;28;20049;-46
2022/06/05 02:47:19;;;;;;;;;;;20.20;56.80;;;;;;5108316;28;19933;-44
2022/06/05 02:49:49;;;;;;;;;;;19.90;55.50;;;;;;5121044;28;20442;-50
2022/06/05 02:52:15;;;;;;;;;;;19.70;55.30;;;;;;5101765;28;20310;-48
2022/06/05 02:54:52;;;;;;;;;;;19.70;57.20;;;;;;5108018;28;19924;-46
2022/06/05 02:57:17;;;;;;;;;;;20.60;62.00;;;;;;5121105;28;19973;-45
2022/06/05 02:59:43;;;;;;;;;;;21.30;63.20;;;;;;5120911;28;19923;-44
2022/06/05 03:04:53;;;;;;;;;;;20.80;59.50;;;;;;5120789;28;19923;-45
2022/06/05 03:07:19;;;;;;;;;;;20.30;57.40;;;;;;5119059;28;20017;-47
2022/06/05 03:09:44;;;;;;;;;;;20.10;56.30;;;;;;5124356;27;19927;-47
2022/06/05 03:12:11;;;;;;;;;;;19.80;55.40;;;;;;5120223;28;19924;-46
2022/06/05 03:14:36;;;;;;;;;;;19.70;54.80;;;;;;5120358;28;19927;-48
2022/06/05 03:17:02;;;;;;;;;;;20.20;60.10;;;;;;5125933;28;19930;-46
2022/06/05 03:19:28;;;;;;;;;;;20.90;62.90;;;;;;5102354;28;19930;-46
2022/06/05 03:21:54;;;;;;;;;;;21.60;62.90;;;;;;5125698;28;19954;-46
2022/06/05 03:24:19;;;;;;;;;;;21.10;60.40;;;;;;5120288;28;19990;-48
2022/06/05 03:26:45;;;;;;;;;;;20.40;58.50;;;;;;5099346;28;19934;-54
2022/06/05 03:29:11;;;;;;;;;;;20.00;57.10;;;;;;5125289;28;20290;-47
2022/06/05 03:31:37;;;;;;;;;;;20.00;55.40;;;;;;5120261;28;19962;-47
2022/06/05 03:34:03;;;;;;;;;;;19.60;55.50;;;;;;5120430;28;20027;-49
2022/06/05 03:36:29;;;;;;;;;;;19.90;58.00;;;;;;5125645;28;19927;-46
2022/06/05 03:38:54;;;;;;;;;;;20.60;62.60;;;;;;5101965;28;20049;-46
2022/06/05 03:41:20;;;;;;;;;;;21.30;63.10;;;;;;5125669;28;19975;-46
2022/06/05 03:43:47;;;;;;;;;;;21.50;61.30;;;;;;5118562;28;19931;-46
2022/06/05 03:46:14;;;;;;;;;;;20.70;59.00;;;;;;5118349;28;19923;-44
2022/06/05 03:48:39;;;;;;;;;;;20.30;57.00;;;;;;5125042;28;20436;-45
2022/06/05 03:51:08;;;;;;;;;;;20.10;55.80;;;;;;5100279;28;19923;-45
2022/06/05 03:53:34;;;;;;;;;;;19.80;55.00;;;;;;5120118;28;20026;-44
2022/06/05 03:55:59;;;;;;;;;;;19.70;55.00;;;;;;5125643;28;20321;-45
2022/06/05 03:58:25;;;;;;;;;;;20.30;60.50;;;;;;5120134;28;19935;-47
2022/06/05 04:00:51;;;;;;;;;;;21.20;62.40;;;;;;5123463;28;19930;-54
2022/06/05 04:03:17;;;;;;;;;;;21.70;61.60;;;;;;5120069;28;19978;-48
2022/06/05 04:05:43;;;;;;;;;;;20.70;59.40;;;;;;5119004;28;19938;-47
2022/06/05 04:08:09;;;;;;;;;;;20.30;57.70;;;;;;5106760;28;20363;-45
2022/06/05 04:10:36;;;;;;;;;;;19.90;56.60;;;;;;5119762;28;19930;-45
2022/06/05 04:13:02;;;;;;;;;;;19.80;55.40;;;;;;5119780;28;20392;-47
2022/06/05 04:15:27;;;;;;;;;;;20.10;58.70;;;;;;5125390;28;19934;-46
2022/06/05 04:17:53;;;;;;;;;;;20.80;62.80;;;;;;5119570;28;20325;-45
2022/06/05 04:20:19;;;;;;;;;;;21.40;62.90;;;;;;5118964;28;19958;-55
2022/06/05 04:22:45;;;;;;;;;;;21.30;60.60;;;;;;5124597;27;19980;-44
2022/06/05 04:25:11;;;;;;;;;;;20.40;58.80;;;;;;5104591;28;19923;-44
2022/06/05 04:27:37;;;;;;;;;;;20.10;57.20;;;;;;5108349;28;19967;-45
2022/06/05 04:30:04;;;;;;;;;;;20.10;55.60;;;;;;5123110;28;19930;-45
2022/06/05 04:32:29;;;;;;;;;;;19.80;55.20;;;;;;5123082;28;19941;-46
2022/06/05 04:34:55;;;;;;;;;;;19.60;54.90;;;;;;5128646;28;19923;-46
2022/06/05 04:37:21;;;;;;;;;;;20.30;60.80;;;;;;5122933;28;19927;-47
2022/06/05 04:39:47;;;;;;;;;;;21.10;63.20;;;;;;5120687;28;19933;-50
2022/06/05 04:42:12;;;;;;;;;;;21.80;62.70;;;;;;5127644;28;20550;-47
2022/06/05 04:44:41;;;;;;;;;;;21.10;60.10;;;;;;5122728;28;20039;-46
2022/06/05 04:47:07;;;;;;;;;;;20.50;58.40;;;;;;5128273;28;19934;-45
2022/06/05 04:49:35;;;;;;;;;;;20.20;56.90;;;;;;5122862;28;19930;-44
2022/06/05 04:52:01;;;;;;;;;;;19.90;56.20;;;;;;5104934;28;20145;-44
2022/06/05 04:54:27;;;;;;;;;;;19.80;55.60;;;;;;5128364;28;19929;-46
2022/06/05 04:56:53;;;;;;;;;;;19.70;54.90;;;;;;5121598;28;20391;-49
2022/06/05 04:59:19;;;;;;;;;;;20.30;61.40;;;;;;5120824;28;19923;-45
2022/06/05 05:01:44;;;;;;;;;;;21.20;63.00;;;;;;5127634;28;20355;-47
2022/06/05 05:04:11;;;;;;;;;;;21.70;63.00;;;;;;5122564;28;20416;-46
2022/06/05 05:06:37;;;;;;;;;;;21.20;59.80;;;;;;5126798;28;19927;-55
2022/06/05 05:09:03;;;;;;;;;;;20.30;58.50;;;;;;5124232;28;20029;-46
2022/06/05 05:11:29;;;;;;;;;;;20.10;56.70;;;;;;5122745;28;20374;-44
2022/06/05 05:13:55;;;;;;;;;;;19.80;56.00;;;;;;5127744;28;20386;-45
2022/06/05 05:16:21;;;;;;;;;;;19.80;55.00;;;;;;5120081;28;19947;-46
2022/06/05 05:18:47;;;;;;;;;;;20.40;61.60;;;;;;5121368;28;20068;-45
2022/06/05 05:21:13;;;;;;;;;;;21.20;63.50;;;;;;5127393;28;19977;-44
2022/06/05 05:23:39;;;;;;;;;;;21.70;62.30;;;;;;5101653;28;19923;-45
2022/06/05 05:26:06;;;;;;;;;;;20.90;59.50;;;;;;5123784;28;20011;-53
2022/06/05 05:28:32;;;;;;;;;;;20.30;57.70;;;;;;5127194;28;19968;-45
2022/06/05 05:30:57;;;;;;;;;;;20.20;56.40;;;;;;5122163;28;20371;-45
2022/06/05 05:33:24;;;;;;;;;;;19.90;55.90;;;;;;5107701;28;19930;-48
2022/06/05 05:35:50;;;;;;;;;;;19.80;54.90;;;;;;5119636;28;19927;-49
2022/06/05 05:38:16;;;;;;;;;;;20.40;61.20;;;;;;5121821;28;19923;-45
2022/06/05 05:43:26;;;;;;;;;;;21.70;63.50;;;;;;5122111;28;19930;-50
2022/06/05 05:45:51;;;;;;;;;;;20.90;60.20;;;;;;5122395;28;19931;-50
2022/06/05 05:48:17;;;;;;;;;;;20.30;58.70;;;;;;5127791;28;19923;-46
2022/06/05 05:50:44;;;;;;;;;;;20.00;57.30;;;;;;5121702;28;19927;-46
2022/06/05 05:53:10;;;;;;;;;;;19.70;56.10;;;;;;5102794;28;20433;-54
2022/06/05 05:55:35;;;;;;;;;;;19.70;55.60;;;;;;5124842;28;19931;-45
2022/06/05 05:58:01;;;;;;;;;;;20.30;60.30;;;;;;5121402;28;19983;-46
2022/06/05 06:00:27;;;;;;;;;;;20.90;64.10;;;;;;5127250;28;19931;-46
2022/06/05 06:02:53;;;;;;;;;;;21.60;64.30;;;;;;5121753;28;19923;-45
2022/06/05 06:05:19;;;;;;;;;;;21.20;61.60;;;;;;5102139;28;20375;-45
2022/06/05 06:07:45;;;;;;;;;;;20.30;59.70;;;;;;5127078;28;19985;-44
2022/06/05 06:10:11;;;;;;;;;;;20.00;58.10;;;;;;5120784;28;20379;-48
2022/06/05 06:12:36;;;;;;;;;;;19.80;56.50;;;;;;5119243;28;20306;-48
2022/06/05 06:15:02;;;;;;;;;;;20.30;62.60;;;;;;5126484;28;19927;-50
2022/06/05 06:17:28;;;;;;;;;;;21.00;65.20;;;;;;5121367;28;20390;-47
2022/06/05 06:19:54;;;;;;;;;;;21.60;64.70;;;;;;5108534;28;19923;-46
2022/06/05 06:22:20;;;;;;;;;;;20.90;61.10;;;;;;5121296;28;19924;-46
2022/06/05 06:24:46;;;;;;;;;;;20.30;59.20;;;;;;5121443;28;19923;-45
2022/06/05 06:27:11;;;;;;;;;;;20.10;57.30;;;;;;5126600;28;19943;-44
2022/06/05 06:29:37;;;;;;;;;;;19.90;56.00;;;;;;5119161;28;20024;-46
2022/06/05 06:32:03;;;;;;;;;;;19.90;58.60;;;;;;5119844;28;19930;-48
2022/06/05 06:34:29;;;;;;;;;;;20.60;63.90;;;;;;5108052;28;19924;-49
2022/06/05 06:36:55;;;;;;;;;;;21.30;65.20;;;;;;5120901;28;19931;-48
2022/06/05 06:39:21;;;;;;;;;;;21.70;63.50;;;;;;5126782;28;19972;-43
2022/06/05 06:41:47;;;;;;;;;;;20.80;60.70;;;;;;5103110;28;19937;-45
2022/06/05 06:44:13;;;;;;;;;;;20.20;58.80;;;;;;5120972;28;20293;-46
2022/06/05 06:46:38;;;;;;;;;;;19.90;57.00;;;;;;5125987;27;19931;-46
2022/06/05 06:49:04;;;;;;;;;;;19.90;56.10;;;;;;5118495;28;20390;-47
2022/06/05 06:51:30;;;;;;;;;;;20.30;61.90;;;;;;5120582;28;19927;-45
2022/06/05 06:53:56;;;;;;;;;;;21.00;64.90;;;;;;5125936;28;19923;-47
2022/06/05 06:56:26;;;;;;;;;;;21.60;64.90;;;;;;5120863;28;19924;-44
2022/06/05 06:58:52;;;;;;;;;;;21.00;61.60;;;;;;5125266;28;20301;-55
2022/06/05 07:01:17;;;;;;;;;;;20.40;59.20;;;;;;5122010;28;19967;-47
2022/06/05 07:03:44;;;;;;;;;;;20.10;57.30;;;;;;5120713;28;20018;-46
2022/06/05 07:06:11;;;;;;;;;;;19.80;56.70;;;;;;5124293;28;19923;-49
2022/06/05 07:08:37;;;;;;;;;;;19.70;55.90;;;;;;5119467;28;19923;-46
2022/06/05 07:11:06;;;;;;;;;;;20.20;60.80;;;;;;5120380;28;20363;-46
2022/06/05 07:13:31;;;;;;;;;;;20.90;64.60;;;;;;5126137;28;19928;-47
2022/06/05 07:15:57;;;;;;;;;;;21.50;65.00;;;;;;5120847;28;19935;-44
2022/06/05 07:18:23;;;;;;;;;;;21.40;62.50;;;;;;5120882;28;20023;-53
2022/06/05 07:20:49;;;;;;;;;;;20.60;60.40;;;;;;5125737;28;19923;-48
2022/06/05 07:23:15;;;;;;;;;;;20.10;58.30;;;;;;5120458;28;19927;-47
2022/06/05 07:25:45;;;;;;;;;;;20.00;56.50;;;;;;5123211;28;19925;-44
2022/06/05 07:28:10;;;;;;;;;;;19.90;56.00;;;;;;5120038;28;19930;-45
2022/06/05 07:30:36;;;;;;;;;;;19.80;56.70;;;;;;5120155;28;20348;-47
2022/06/05 07:33:02;;;;;;;;;;;20.50;62.60;;;;;;5125923;28;19938;-47
2022/06/05 07:35:28;;;;;;;;;;;21.20;65.00;;;;;;5120549;28;19923;-45
2022/06/05 07:37:53;;;;;;;;;;;21.80;64.50;;;;;;5120667;28;20357;-48
2022/06/05 07:40:19;;;;;;;;;;;20.90;61.20;;;;;;5125555;28;19923;-45
2022/06/05 07:42:45;;;;;;;;;;;20.40;58.80;;;;;;5118623;28;19990;-45
2022/06/05 07:45:13;;;;;;;;;;;20.00;58.00;;;;;;5124076;28;20932;-45
2022/06/05 07:47:42;;;;;;;;;;;19.90;56.30;;;;;;5119853;28;20052;-45
2022/06/05 07:50:08;;;;;;;;;;;19.80;55.80;;;;;;5119712;28;19927;-46
2022/06/05 07:55:18;;;;;;;;;;;20.80;64.50;;;;;;5120245;28;20350;-45
2022/06/05 07:57:45;;;;;;;;;;;21.40;65.30;;;;;;5121640;27;19966;-45
2022/06/05 08:00:11;;;;;;;;;;;21.50;62.60;;;;;;5128837;28;19934;-44
2022/06/05 08:02:36;;;;;;;;;;;20.60;60.20;;;;;;5121025;28;20030;-47
2022/06/05 08:05:03;;;;;;;;;;;20.00;58.60;;;;;;5123002;28;20524;-44
2022/06/05 08:07:29;;;;;;;;;;;19.90;57.10;;;;;;5128735;28;19930;-46
2022/06/05 08:09:55;;;;;;;;;;;19.70;56.50;;;;;;5123508;28;19953;-47
2022/06/05 08:12:21;;;;;;;;;;;19.80;57.70;;;;;;5128877;28;20282;-46
2022/06/05 08:14:49;;;;;;;;;;;20.50;63.60;;;;;;5123728;28;20391;-47
2022/06/05 08:17:17;;;;;;;;;;;21.20;65.50;;;;;;5123375;28;19934;-46
2022/06/05 08:19:45;;;;;;;;;;;21.70;64.70;;;;;;5126921;28;19945;-46
2022/06/05 08:22:11;;;;;;;;;;;20.80;61.30;;;;;;5121767;28;19930;-47
2022/06/05 08:24:37;;;;;;;;;;;20.40;59.20;;;;;;5123129;28;19977;-46
2022/06/05 08:27:03;;;;;;;;;;;20.20;57.40;;;;;;5128609;28;19923;-44
2022/06/05 08:29:29;;;;;;;;;;;19.80;56.80;;;;;;5123102;28;19924;-47
2022/06/05 08:31:55;;;;;;;;;;;19.80;56.60;;;;;;5123903;28;19927;-56
2022/06/05 08:34:21;;;;;;;;;;;20.40;63.00;;;;;;5128274;28;19923;-46
2022/06/05 08:36:47;;;;;;;;;;;21.20;65.10;;;;;;5123032;28;19949;-48
2022/06/05 08:42:06;;;;;;;;;;;21.00;61.10;;;;;;5124242;28;20336;-44
2022/06/05 08:44:33;;;;;;;;;;;20.20;59.10;;;;;;5104639;28;20301;-47
2022/06/05 08:46:59;;;;;;;;;;;20.00;57.30;;;;;;5128579;28;20439;-46
2022/06/05 08:49:40;;;;;;;;;;;19.80;56.50;;;;;;5123104;28;20344;-45
2022/06/05 08:52:18;;;;;;;;;;;19.70;55.70;;;;;;5123148;28;20381;-46
2022/06/05 08:55:00;;;;;;;;;;;20.50;61.80;;;;;;5109927;28;20015;-45
2022/06/05 08:57:29;;;;;;;;;;;21.00;65.30;;;;;;5103536;28;20010;-48
2022/06/05 09:00:02;;;;;;;;;;;21.70;65.30;;;;;;5122276;28;19923;-43
2022/06/05 09:03:00;;;;;;;;;;;21.00;61.50;;;;;;5109891;28;19923;-47
2022/06/05 09:05:26;;;;;;;;;;;20.30;59.40;;;;;;5071392;28;19935;-46
2022/06/05 09:07:53;;;;;;;;;;;20.00;57.50;;;;;;5122139;27;19930;-46
2022/06/05 09:10:21;;;;;;;;;;;20.00;56.10;;;;;;5127992;28;19931;-45
2022/06/05 09:12:48;;;;;;;;;;;19.80;57.60;;;;;;5104157;28;20371;-48
2022/06/05 09:15:49;;;;;;;;;;;20.50;63.50;;;;;;5120381;28;20194;-48
2022/06/05 09:18:16;;;;;;;;;;;21.20;65.40;;;;;;5021585;28;20524;-53
2022/06/05 09:20:55;;;;;;;;;;;21.70;63.50;;;;;;5101857;28;19924;-47
2022/06/05 09:23:41;;;;;;;;;;;20.80;60.60;;;;;;5102481;28;19930;-45
2022/06/05 09:26:10;;;;;;;;;;;20.30;58.80;;;;;;5104670;28;19923;-53
2022/06/05 09:28:39;;;;;;;;;;;20.20;56.80;;;;;;5127862;28;19934;-45
2022/06/05 09:31:12;;;;;;;;;;;19.90;56.20;;;;;;5121992;28;19929;-43
2022/06/05 09:33:37;;;;;;;;;;;19.80;55.50;;;;;;5107071;28;20271;-46
2022/06/05 09:36:04;;;;;;;;;;;20.40;62.60;;;;;;5121047;28;19931;-44
2022/06/05 09:38:31;;;;;;;;;;;21.10;65.40;;;;;;5121570;28;19933;-46
2022/06/05 09:41:00;;;;;;;;;;;21.70;65.30;;;;;;5127482;28;19927;-45
2022/06/05 09:43:26;;;;;;;;;;;21.00;61.80;;;;;;5122145;28;19923;-45
2022/06/05 09:45:55;;;;;;;;;;;20.50;59.00;;;;;;5122253;28;20328;-46
2022/06/05 09:48:24;;;;;;;;;;;20.30;57.40;;;;;;5109101;28;20620;-45
2022/06/05 09:50:50;;;;;;;;;;;20.10;56.40;;;;;;5120704;28;19970;-47
2022/06/05 09:53:24;;;;;;;;;;;19.90;55.60;;;;;;5100744;28;19931;-46
2022/06/05 09:55:56;;;;;;;;;;;20.20;60.20;;;;;;5108425;28;19927;-48
2022/06/05 09:58:41;;;;;;;;;;;20.90;64.70;;;;;;5101255;28;19923;-44
2022/06/05 10:01:28;;;;;;;;;;;21.60;65.20;;;;;;5121825;28;20106;-45
2022/06/05 10:03:54;;;;;;;;;;;21.30;61.70;;;;;;5127204;28;19927;-46
2022/06/05 10:06:40;;;;;;;;;;;20.60;59.30;;;;;;5121423;28;19933;-46
2022/06/05 10:09:12;;;;;;;;;;;20.30;58.00;;;;;;5120842;28;19924;-45
2022/06/05 10:11:51;;;;;;;;;;;20.00;56.50;;;;;;5125067;28;19923;-45
2022/06/05 10:14:47;;;;;;;;;;;19.90;55.90;;;;;;5121154;28;20419;-49
2022/06/05 10:17:25;;;;;;;;;;;20.30;61.80;;;;;;5030840;28;19978;-45
2022/06/05 10:19:53;;;;;;;;;;;21.20;65.40;;;;;;5107731;28;19952;-44
2022/06/05 10:22:25;;;;;;;;;;;21.60;64.00;;;;;;5121221;28;20018;-43
2022/06/05 10:25:04;;;;;;;;;;;20.90;60.60;;;;;;5121259;28;19975;-44
2022/06/05 10:27:30;;;;;;;;;;;20.30;58.60;;;;;;5106254;28;19975;-46
2022/06/05 10:29:56;;;;;;;;;;;20.30;57.10;;;;;;5118735;28;19930;-44
2022/06/05 10:32:28;;;;;;;;;;;19.80;56.30;;;;;;5120739;28;20010;-49
2022/06/05 10:35:20;;;;;;;;;;;20.00;57.70;;;;;;5108168;28;19924;-46
2022/06/05 10:37:53;;;;;;;;;;;20.70;63.50;;;;;;5116174;28;19980;-44
2022/06/05 10:40:30;;;;;;;;;;;21.40;65.50;;;;;;5121210;28;19967;-45
2022/06/05 10:42:59;;;;;;;;;;;21.50;62.80;;;;;;5106347;28;19965;-44
2022/06/05 10:45:39;;;;;;;;;;;20.70;60.20;;;;;;5100445;28;20014;-50
2022/06/05 10:48:04;;;;;;;;;;;20.40;58.20;;;;;;5100714;28;19924;-44
2022/06/05 10:50:36;;;;;;;;;;;20.20;56.90;;;;;;5126020;28;19972;-43
2022/06/05 10:53:13;;;;;;;;;;;19.90;56.40;;;;;;5120531;28;20421;-44
2022/06/05 10:55:42;;;;;;;;;;;19.60;56.10;;;;;;5102616;28;20299;-47
2022/06/05 10:58:11;;;;;;;;;;;20.40;63.00;;;;;;5126511;28;20434;-46
2022/06/05 11:01:04;;;;;;;;;;;21.10;65.90;;;;;;5102147;28;21305;-46
2022/06/05 11:03:48;;;;;;;;;;;21.70;65.90;;;;;;5081405;28;19929;-47
2022/06/05 11:06:30;;;;;;;;;;;20.80;62.00;;;;;;5123474;28;19987;-46
2022/06/05 11:08:55;;;;;;;;;;;20.50;59.20;;;;;;5119970;28;19927;-45
2022/06/05 11:14:20;;;;;;;;;;;19.90;56.70;;;;;;5110618;28;19977;-44
2022/06/05 11:16:54;;;;;;;;;;;20.00;55.90;;;;;;5122068;28;20306;-47
2022/06/05 11:19:38;;;;;;;;;;;20.10;59.80;;;;;;5102372;28;20367;-47
2022/06/05 11:22:05;;;;;;;;;;;20.80;65.40;;;;;;5106826;28;19928;-54
2022/06/05 11:24:32;;;;;;;;;;;21.50;66.40;;;;;;5100537;28;19939;-46
2022/06/05 11:27:16;;;;;;;;;;;21.30;63.90;;;;;;5119792;28;19928;-49
2022/06/05 11:29:54;;;;;;;;;;;20.80;60.60;;;;;;5125511;28;19971;-45
2022/06/05 11:32:21;;;;;;;;;;;20.20;58.80;;;;;;5124782;27;19963;-46
2022/06/05 11:34:52;;;;;;;;;;;20.00;57.40;;;;;;5103976;28;19924;-45
2022/06/05 11:37:34;;;;;;;;;;;19.80;56.50;;;;;;5109565;28;20406;-46
2022/06/05 11:40:09;;;;;;;;;;;19.80;56.00;;;;;;5107949;28;19931;-47
2022/06/05 11:43:04;;;;;;;;;;;20.40;63.90;;;;;;5121612;28;20325;-45
2022/06/05 11:45:33;;;;;;;;;;;21.20;66.20;;;;;;5101165;28;20002;-45
2022/06/05 11:48:02;;;;;;;;;;;21.70;65.30;;;;;;5110741;28;19927;-45
2022/06/05 11:50:30;;;;;;;;;;;21.00;61.50;;;;;;5123898;28;19930;-44
2022/06/05 11:53:15;;;;;;;;;;;20.60;59.10;;;;;;5110091;28;19934;-45
2022/06/05 11:55:44;;;;;;;;;;;20.10;57.70;;;;;;5129457;28;19931;-44
2022/06/05 11:58:14;;;;;;;;;;;19.90;56.70;;;;;;5123843;28;19963;-45
2022/06/05 12:00:54;;;;;;;;;;;19.50;56.60;;;;;;5108774;28;19935;-49
2022/06/05 12:03:23;;;;;;;;;;;20.20;61.40;;;;;;5106985;28;20295;-45
2022/06/05 12:05:54;;;;;;;;;;;21.00;65.50;;;;;;5123527;28;20018;-44
2022/06/05 12:08:24;;;;;;;;;;;21.60;66.20;;;;;;5129143;28;19928;-46
2022/06/05 12:10:52;;;;;;;;;;;21.30;63.00;;;;;;5105214;28;19927;-46
2022/06/05 12:13:20;;;;;;;;;;;20.80;60.40;;;;;;5105331;28;20363;-44
2022/06/05 12:16:06;;;;;;;;;;;20.40;58.70;;;;;;5128828;28;19934;-45
2022/06/05 12:18:40;;;;;;;;;;;20.30;57.10;;;;;;5103116;28;19923;-47
2022/06/05 12:21:12;;;;;;;;;;;20.00;56.50;;;;;;5122013;28;19931;-43
2022/06/05 12:23:59;;;;;;;;;;;19.90;55.80;;;;;;5128504;28;19987;-46
2022/06/05 12:26:44;;;;;;;;;;;20.10;59.50;;;;;;5105482;28;20010;-45
2022/06/05 12:29:11;;;;;;;;;;;20.90;65.00;;;;;;5104984;28;19930;-45
2022/06/05 12:31:39;;;;;;;;;;;21.60;65.90;;;;;;5108448;28;20026;-47
2022/06/05 12:34:18;;;;;;;;;;;21.30;63.10;;;;;;5122949;28;20010;-43
2022/06/05 12:36:46;;;;;;;;;;;20.70;60.40;;;;;;5121418;28;20321;-47
2022/06/05 12:39:11;;;;;;;;;;;20.30;58.60;;;;;;5108756;28;19930;-47
2022/06/05 12:41:42;;;;;;;;;;;20.30;56.60;;;;;;5122918;28;19927;-47
2022/06/05 12:44:16;;;;;;;;;;;20.10;56.10;;;;;;5104137;28;20396;-43
2022/06/05 12:46:46;;;;;;;;;;;19.90;55.50;;;;;;5128745;28;19923;-46
2022/06/05 12:49:28;;;;;;;;;;;20.30;60.80;;;;;;5105041;28;19930;-46
2022/06/05 12:52:12;;;;;;;;;;;21.00;64.80;;;;;;5105103;28;19928;-45
2022/06/05 12:54:41;;;;;;;;;;;21.60;65.80;;;;;;5127309;28;20298;-47
2022/06/05 12:57:08;;;;;;;;;;;21.30;62.20;;;;;;5120934;28;19927;-49
2022/06/05 12:59:52;;;;;;;;;;;20.80;59.70;;;;;;5104003;28;19938;-47
2022/06/05 13:02:22;;;;;;;;;;;20.30;58.00;;;;;;5109144;28;19949;-48
2022/06/05 13:04:51;;;;;;;;;;;20.30;56.30;;;;;;5104475;28;20413;-45
2022/06/05 13:07:35;;;;;;;;;;;20.00;55.60;;;;;;5104389;28;20370;-46
2022/06/05 13:10:08;;;;;;;;;;;20.10;56.50;;;;;;5127773;28;19923;-47
2022/06/05 13:12:35;;;;;;;;;;;20.80;63.60;;;;;;5122211;28;20006;-48
2022/06/05 13:15:05;;;;;;;;;;;21.40;65.00;;;;;;5101291;28;20361;-46
2022/06/05 13:17:49;;;;;;;;;;;21.70;63.50;;;;;;5127513;28;19946;-44
2022/06/05 13:20:27;;;;;;;;;;;20.90;60.30;;;;;;5122181;28;19934;-44
2022/06/05 13:23:12;;;;;;;;;;;20.60;58.20;;;;;;5103869;28;19927;-45
2022/06/05 13:25:54;;;;;;;;;;;20.20;57.00;;;;;;5127882;28;19981;-44
2022/06/05 13:28:23;;;;;;;;;;;20.20;55.80;;;;;;5122547;28;19927;-44
2022/06/05 13:30:51;;;;;;;;;;;19.90;55.40;;;;;;5103728;28;19972;-47
2022/06/05 13:33:22;;;;;;;;;;;20.00;58.30;;;;;;5106886;28;19924;-51
2022/06/05 13:35:51;;;;;;;;;;;20.80;63.20;;;;;;5121688;28;20017;-47
2022/06/05 13:38:42;;;;;;;;;;;21.40;64.60;;;;;;5121881;28;20228;-46
2022/06/05 13:41:19;;;;;;;;;;;21.70;63.20;;;;;;5109535;28;20041;-43
2022/06/05 13:43:48;;;;;;;;;;;20.80;60.10;;;;;;5103887;28;20002;-45
2022/06/05 13:46:17;;;;;;;;;;;20.60;57.60;;;;;;5122261;28;19928;-44
2022/06/05 13:48:46;;;;;;;;;;;20.40;56.40;;;;;;5127320;28;20377;-46
2022/06/05 13:51:23;;;;;;;;;;;20.20;56.00;;;;;;5119000;28;19927;-44
2022/06/05 13:53:53;;;;;;;;;;;20.10;55.20;;;;;;5121144;28;19929;-45
2022/06/05 13:56:19;;;;;;;;;;;20.30;60.90;;;;;;5126253;28;19923;-45
2022/06/05 13:58:45;;;;;;;;;;;21.00;64.60;;;;;;5121893;28;19924;-46
2022/06/05 14:01:10;;;;;;;;;;;21.70;64.70;;;;;;5121634;28;19984;-43
2022/06/05 14:03:52;;;;;;;;;;;21.40;61.60;;;;;;5127194;28;19930;-44
2022/06/05 14:06:35;;;;;;;;;;;20.90;59.20;;;;;;5121327;28;19974;-45
2022/06/05 14:09:03;;;;;;;;;;;20.60;57.40;;;;;;5101407;28;19927;-47
2022/06/05 14:11:33;;;;;;;;;;;20.30;56.80;;;;;;5107436;28;19927;-44
2022/06/05 14:14:00;;;;;;;;;;;20.10;56.30;;;;;;5121321;28;20067;-45
2022/06/05 14:16:31;;;;;;;;;;;19.80;56.10;;;;;;5121703;28;20005;-52
2022/06/05 14:18:58;;;;;;;;;;;19.90;55.90;;;;;;5127075;28;20022;-45
2022/06/05 14:21:25;;;;;;;;;;;20.50;62.30;;;;;;5103237;28;19928;-45
2022/06/05 14:23:51;;;;;;;;;;;21.20;64.50;;;;;;5126784;28;19953;-45
2022/06/05 14:26:19;;;;;;;;;;;21.80;64.40;;;;;;5120886;28;20015;-43
2022/06/05 14:28:45;;;;;;;;;;;21.30;61.50;;;;;;5084008;28;20002;-43
2022/06/05 14:31:12;;;;;;;;;;;20.70;59.20;;;;;;5126169;28;19927;-47
2022/06/05 14:33:42;;;;;;;;;;;20.60;57.00;;;;;;5121089;28;19924;-50
2022/06/05 14:36:08;;;;;;;;;;;20.30;56.40;;;;;;5103186;28;19927;-44
2022/06/05 14:38:34;;;;;;;;;;;20.20;55.60;;;;;;5106356;28;19984;-47
2022/06/05 14:41:26;;;;;;;;;;;20.00;55.00;;;;;;5121376;28;19950;-47
2022/06/05 14:43:54;;;;;;;;;;;20.30;59.80;;;;;;5115928;28;20201;-47
2022/06/05 14:46:31;;;;;;;;;;;21.10;63.90;;;;;;5123830;28;20011;-46